Portada
METAR-TAF:

METAR-TAF

Aeroports :

Bangalore, Índia

latitud: 12-57-00N, longitud: 077-40-06E, altitud: 888 m

Observació

L'informe es va fer fa 4 hores i 17 minuts, a les 18:00 UTC
Vent 6 kt del Nord-Est
Temperatura 21°C
Humitat 69%
Pressió 1019 hPa
Visibilitat: 6000 m

METAR: VOBG 171800Z 05006KT 6000 NSC 21/15 Q1019 NOSIG

Hora: 03:47 (22:17 UTC)

Pronòstic

L'informe es va fer fa 2 hores i 17 minuts, a les 20:00 UTC
Pronòstic vàlid del 17 a les 21 UTC al 18 a les 06 UTC
Vent 2 kt amb direcció variable
Visibilitat: 6000 m
Escasses núvols a una alçada de 1500 ft
Evolucionant progressivament
l' 17 a les 22 UTC al 17 a les 23 UTC
Visibilitat: 3000 m
Núvols disperses a una alçada de 1000 ft
boirina
Evolucionant progressivament
l' 18 a les 04 UTC al 18 a les 05 UTC
Vent 10 kt del Est/Sud-Est
Visibilitat: 6000 m
Escasses núvols a una alçada de 1500 ft

TAF: VOBG 172000Z 1721/1806 VRB02KT 6000 FEW015 BECMG 1722/1723 3000 BR SCT010 BECMG 1804/1805 11010KT 6000 FEW015

Observacions i pronòstics meteorològics de més de 4000 aeroports (METAR i TAF).

Les estacions disponibles són els punts grocs i vermells al mapa.

Posi el ratolí al punt desitjat per veure el nom de l'estació.

Feu clic per veure les observacions i els pronòstics meteorològics.

Per canviar el mapa: feu clic els botons verds amb una creu de color negre per apropar; al botó verd amb un guió per allunyar la imatge; o en les fletxes verdes per a mapes adjacents.


METAR-TAF: